Time;durP1;ratioP1;P1;durP2;ratioP2;P2;SDS_P1;SDS_P2;PMS_P1;PMS_P2;Temp;Humidity;BMP_temperature;BMP_pressure;BME280_temperature;BME280_humidity;BME280_pressure;Samples;Min_cycle;Max_cycle;Signal;HPM_P1;HPM_P2
2021/05/09 00:20:52;;;;;;;9.73;5.70;;;5.90;99.90;;;;;;6123858;22;5303302;-94
2021/05/09 00:23:28;;;;;;;7.57;4.65;;;5.80;99.90;;;;;;6331182;22;20422;-94
2021/05/09 00:31:04;;;;;;;8.30;5.10;;;5.70;99.90;;;;;;6235110;23;20398;-95
2021/05/09 00:38:28;;;;;;;7.50;4.68;;;5.50;99.90;;;;;;6094853;23;20368;-95
2021/05/09 00:42:16;;;;;;;7.75;4.60;;;5.60;99.90;;;;;;6118724;23;20371;-94
2021/05/09 00:56:56;;;;;;;6.38;3.88;;;5.70;99.90;;;;;;6352385;22;20927;-93
2021/05/09 01:00:48;;;;;;;6.05;3.05;;;5.70;99.90;;;;;;6287403;22;20379;-95
2021/05/09 01:04:58;;;;;;;4.90;3.40;;;5.80;99.90;;;;;;6287964;22;20402;-95
2021/05/09 01:08:41;;;;;;;8.85;3.00;;;6.00;99.90;;;;;;6234004;23;21009;-95
2021/05/09 01:12:22;;;;;;;4.47;2.53;;;6.40;99.90;;;;;;6222047;23;20797;-94
2021/05/09 01:19:31;;;;;;;3.30;2.47;;;6.80;99.90;;;;;;6163234;23;20389;-94
2021/05/09 01:26:52;;;;;;;4.97;2.28;;;6.50;99.90;;;;;;6052683;23;20415;-94
2021/05/09 01:34:41;;;;;;;4.50;2.10;;;6.10;99.90;;;;;;6076420;23;20945;-94
2021/05/09 01:38:14;;;;;;;3.90;2.17;;;5.90;99.90;;;;;;6074850;23;20383;-94
2021/05/09 01:42:06;;;;;;;6.03;2.50;;;6.20;99.90;;;;;;6001246;23;20406;-94
2021/05/09 01:52:10;;;;;;;4.03;2.15;;;6.70;99.00;;;;;;6009644;23;20407;-94
2021/05/09 03:22:27;;;;;;;2.80;1.70;;;6.30;99.90;;;;;;6341457;22;20364;-94
2021/05/09 03:25:29;;;;;;;2.40;1.60;;;6.30;99.90;;;;;;6345563;22;20389;-92
2021/05/09 03:28:40;;;;;;;3.07;1.40;;;6.40;99.90;;;;;;6217832;22;20396;-93
2021/05/09 03:32:25;;;;;;;1.77;1.27;;;6.60;99.90;;;;;;6239955;22;20455;-94
2021/05/09 03:39:37;;;;;;;1.67;1.20;;;6.40;99.90;;;;;;6237640;23;20342;-95
2021/05/09 03:42:45;;;;;;;2.08;1.33;;;6.40;99.90;;;;;;6284900;22;20472;-94
2021/05/09 03:56:44;;;;;;;3.00;1.40;;;6.60;99.90;;;;;;6068594;23;20385;-95
2021/05/09 03:59:53;;;;;;;4.18;1.38;;;6.70;99.90;;;;;;6123104;23;20396;-96
2021/05/09 04:02:56;;;;;;;2.80;1.20;;;6.80;99.90;;;;;;6087284;23;20396;-96
2021/05/09 04:17:10;;;;;;;4.70;1.20;;;6.60;99.90;;;;;;6085824;23;20432;-96
2021/05/09 04:47:32;;;;;;;2.42;1.10;;;7.10;99.90;;;;;;6297888;22;20572;-94
2021/05/09 04:51:23;;;;;;;3.42;1.20;;;7.20;99.90;;;;;;6323346;22;20342;-96
2021/05/09 05:07:14;;;;;;;3.20;1.30;;;8.10;99.90;;;;;;6356243;22;20392;-96
2021/05/09 05:09:41;;;;;;;4.20;1.10;;;8.20;99.90;;;;;;6326812;22;20377;-96
2021/05/09 05:12:09;;;;;;;3.65;1.10;;;8.30;99.90;;;;;;6326827;22;20381;-95
2021/05/09 05:14:52;;;;;;;1.33;0.80;;;8.50;99.90;;;;;;6333015;22;20365;-96
2021/05/09 05:17:57;;;;;;;2.20;1.40;;;8.60;99.90;;;;;;6312947;22;20383;-96
2021/05/09 05:20:49;;;;;;;3.67;1.30;;;8.70;99.90;;;;;;6186365;23;20408;-94
2021/05/09 05:23:51;;;;;;;2.10;1.20;;;8.80;99.90;;;;;;6164112;23;20405;-95
2021/05/09 05:26:40;;;;;;;3.30;1.40;;;9.00;99.90;;;;;;6192535;23;20385;-94
2021/05/09 05:29:14;;;;;;;4.85;1.27;;;9.10;99.90;;;;;;6179673;23;20408;-96
2021/05/09 05:31:59;;;;;;;2.55;1.13;;;9.20;99.00;;;;;;6175004;23;20357;-96
2021/05/09 05:34:52;;;;;;;1.40;0.90;;;9.40;98.80;;;;;;6176835;23;20382;-96
2021/05/09 05:37:29;;;;;;;1.52;0.98;;;9.50;99.40;;;;;;6201102;23;20438;-96
2021/05/09 05:40:22;;;;;;;3.05;0.90;;;9.80;98.70;;;;;;6201787;23;20396;-95
2021/05/09 05:43:03;;;;;;;3.33;1.00;;;10.20;99.20;;;;;;6199137;23;20392;-94
2021/05/09 05:45:38;;;;;;;3.45;0.93;;;10.40;99.20;;;;;;6175222;23;20412;-96
2021/05/09 05:48:24;;;;;;;2.22;1.00;;;10.50;99.20;;;;;;6198923;23;20436;-95
2021/05/09 05:50:54;;;;;;;1.65;0.90;;;10.60;98.60;;;;;;6198843;23;20434;-95
2021/05/09 05:53:34;;;;;;;4.57;1.02;;;11.10;97.40;;;;;;6200087;23;20369;-96
2021/05/09 05:56:05;;;;;;;3.10;0.95;;;11.90;95.80;;;;;;6200857;23;20475;-96
2021/05/09 05:59:16;;;;;;;2.20;0.98;;;12.70;93.00;;;;;;6330566;22;20352;-96
2021/05/09 06:02:31;;;;;;;2.25;0.95;;;13.40;93.10;;;;;;6271814;22;20387;-95
2021/05/09 06:05:17;;;;;;;2.40;0.90;;;14.40;87.90;;;;;;6275740;22;20448;-96
2021/05/09 06:08:33;;;;;;;4.38;0.95;;;15.00;88.90;;;;;;6245560;22;20380;-96
2021/05/09 06:11:17;;;;;;;1.20;1.00;;;16.40;76.60;;;;;;6267152;22;20372;-95
2021/05/09 06:14:03;;;;;;;1.35;0.90;;;17.80;70.90;;;;;;6268839;22;20414;-96
2021/05/09 06:16:52;;;;;;;1.80;0.87;;;19.30;64.40;;;;;;6294185;22;20384;-94
2021/05/09 06:25:08;;;;;;;1.40;0.80;;;22.10;49.50;;;;;;6306617;22;20386;-96
2021/05/09 06:27:41;;;;;;;0.73;0.70;;;22.60;47.50;;;;;;6306653;22;20409;-96
2021/05/09 06:30:39;;;;;;;2.50;0.80;;;22.60;48.20;;;;;;6301681;22;20363;-96
2021/05/09 06:33:16;;;;;;;3.00;1.00;;;22.70;44.30;;;;;;6296796;22;20404;-96
2021/05/09 06:35:46;;;;;;;3.28;1.85;;;22.20;43.40;;;;;;6328548;22;20469;-96
2021/05/09 06:38:19;;;;;;;1.52;0.80;;;22.50;45.80;;;;;;6329186;22;20388;-96
2021/05/09 06:40:58;;;;;;;1.80;0.73;;;22.00;43.30;;;;;;6328036;22;20385;-96
2021/05/09 06:43:32;;;;;;;1.30;0.75;;;23.10;43.60;;;;;;6298046;22;20422;-96
2021/05/09 06:46:01;;;;;;;2.40;0.90;;;23.70;43.80;;;;;;6292022;22;20448;-96
2021/05/09 06:49:07;;;;;;;1.58;0.80;;;22.90;43.80;;;;;;6297247;22;20421;-96
2021/05/09 06:51:38;;;;;;;1.42;0.63;;;23.40;46.90;;;;;;6292099;22;20458;-95
2021/05/09 06:54:09;;;;;;;2.25;0.75;;;23.40;41.00;;;;;;6293656;22;20385;-96
2021/05/09 06:56:41;;;;;;;1.08;0.70;;;24.00;41.80;;;;;;6310402;22;20454;-96
2021/05/09 06:59:07;;;;;;;1.80;0.85;;;23.30;42.60;;;;;;6284581;22;20402;-96
2021/05/09 07:01:35;;;;;;;1.58;0.70;;;23.40;43.70;;;;;;6286617;22;20398;-96
2021/05/09 07:04:02;;;;;;;1.23;0.70;;;23.10;41.50;;;;;;6287909;22;20382;-96
2021/05/09 07:06:29;;;;;;;1.30;0.80;;;22.60;44.10;;;;;;6286020;22;20393;-95
2021/05/09 07:08:56;;;;;;;1.13;0.80;;;22.60;42.00;;;;;;6282922;22;20469;-94
2021/05/09 07:11:22;;;;;;;2.10;0.80;;;22.30;44.80;;;;;;6285087;22;20382;-96
2021/05/09 07:13:49;;;;;;;1.25;0.70;;;22.80;43.80;;;;;;6291217;22;20473;-96
2021/05/09 07:16:24;;;;;;;1.02;0.80;;;22.70;45.60;;;;;;6325056;22;20426;-96
2021/05/09 07:19:34;;;;;;;1.95;0.82;;;22.20;47.70;;;;;;6261687;22;20432;-93
2021/05/09 07:22:07;;;;;;;3.05;0.75;;;22.90;44.10;;;;;;6323385;22;20389;-91
2021/05/09 07:24:34;;;;;;;2.28;0.73;;;23.40;46.90;;;;;;6326070;22;20479;-93
2021/05/09 07:27:02;;;;;;;1.25;0.65;;;23.30;41.50;;;;;;6316318;22;20472;-95
2021/05/09 07:29:28;;;;;;;1.17;0.80;;;22.50;45.50;;;;;;6311412;22;20434;-95
2021/05/09 07:31:55;;;;;;;1.40;0.80;;;22.20;46.60;;;;;;6311782;22;20389;-94
2021/05/09 07:34:21;;;;;;;2.30;0.63;;;22.30;45.10;;;;;;6312269;22;20377;-94
2021/05/09 07:36:48;;;;;;;2.72;0.77;;;22.50;47.50;;;;;;6312298;22;20516;-93
2021/05/09 07:39:15;;;;;;;3.50;0.77;;;22.90;46.10;;;;;;6335829;22;20386;-94
2021/05/09 07:41:41;;;;;;;4.13;0.73;;;22.90;45.00;;;;;;6339193;22;20705;-93
2021/05/09 07:44:08;;;;;;;4.55;0.80;;;22.90;44.40;;;;;;6326581;22;20385;-94
2021/05/09 07:46:35;;;;;;;2.90;0.70;;;23.10;41.80;;;;;;6319702;22;20408;-93
2021/05/09 07:49:02;;;;;;;2.05;0.70;;;23.20;45.80;;;;;;6316492;22;20380;-93
2021/05/09 07:51:34;;;;;;;1.50;0.77;;;22.70;43.50;;;;;;6315180;22;20401;-93
2021/05/09 07:54:02;;;;;;;1.55;0.70;;;21.80;42.50;;;;;;6315164;22;20384;-94
2021/05/09 07:56:29;;;;;;;0.80;0.60;;;21.50;45.40;;;;;;6314121;22;20379;-95
2021/05/09 07:58:55;;;;;;;1.85;0.63;;;21.50;46.00;;;;;;6314307;22;20686;-96
2021/05/09 08:01:22;;;;;;;4.88;0.80;;;21.10;47.20;;;;;;6314367;22;20365;-95
2021/05/09 08:03:49;;;;;;;2.50;0.53;;;21.70;47.80;;;;;;6313481;22;20386;-93
2021/05/09 08:06:15;;;;;;;1.38;0.70;;;21.40;46.70;;;;;;6314211;22;20380;-93
2021/05/09 08:08:42;;;;;;;1.50;0.70;;;20.90;46.10;;;;;;6314391;22;20396;-96
2021/05/09 08:11:08;;;;;;;1.55;0.68;;;20.90;49.10;;;;;;6313716;22;20376;-93
2021/05/09 08:13:35;;;;;;;1.17;0.60;;;21.40;49.60;;;;;;6313666;22;20388;-93
2021/05/09 08:16:02;;;;;;;2.33;0.70;;;21.00;46.10;;;;;;6313477;22;20381;-94
2021/05/09 08:18:29;;;;;;;0.90;0.70;;;21.20;47.60;;;;;;6313536;22;20372;-95
2021/05/09 08:20:57;;;;;;;2.60;0.70;;;21.70;50.20;;;;;;6309164;22;20378;-93
2021/05/09 08:23:24;;;;;;;1.63;0.70;;;21.60;42.00;;;;;;6313973;22;20381;-96
2021/05/09 08:25:50;;;;;;;1.05;0.60;;;21.60;47.20;;;;;;6313812;22;20381;-94
2021/05/09 08:28:17;;;;;;;1.33;0.60;;;21.60;44.40;;;;;;6313332;22;20399;-93
2021/05/09 08:30:44;;;;;;;2.47;0.60;;;20.90;41.20;;;;;;6314295;22;20377;-95
2021/05/09 08:33:10;;;;;;;0.60;0.60;;;21.10;43.50;;;;;;6312805;22;20376;-95
2021/05/09 08:35:37;;;;;;;2.10;0.70;;;21.70;43.40;;;;;;6313874;22;20694;-95
2021/05/09 08:38:05;;;;;;;1.45;0.60;;;21.50;42.70;;;;;;6314262;22;20400;-96
2021/05/09 08:40:37;;;;;;;4.40;0.70;;;21.70;47.70;;;;;;6314430;22;20373;-94
2021/05/09 08:43:03;;;;;;;1.75;0.57;;;21.60;45.90;;;;;;6315398;22;20395;-96
2021/05/09 08:45:30;;;;;;;0.70;0.50;;;22.00;42.40;;;;;;6313562;22;20834;-94
2021/05/09 08:47:57;;;;;;;1.27;0.60;;;22.50;45.30;;;;;;6313247;22;20389;-90
2021/05/09 08:50:26;;;;;;;0.93;0.60;;;22.70;45.00;;;;;;6313555;22;20830;-90
2021/05/09 08:52:55;;;;;;;1.73;0.70;;;23.50;42.40;;;;;;6312817;22;20384;-89
2021/05/09 08:55:26;;;;;;;3.08;0.70;;;23.90;42.70;;;;;;6340134;22;20829;-90
2021/05/09 08:57:55;;;;;;;1.17;0.70;;;24.70;40.80;;;;;;6305621;22;20734;-91
2021/05/09 09:00:23;;;;;;;1.52;0.70;;;25.10;39.10;;;;;;6339641;22;20908;-91
2021/05/09 09:02:56;;;;;;;0.90;0.73;;;25.10;38.60;;;;;;6314267;22;20709;-96
2021/05/09 09:05:40;;;;;;;1.40;0.80;;;24.50;39.30;;;;;;6314354;22;20857;-89
2021/05/09 09:08:09;;;;;;;3.90;0.80;;;23.90;41.30;;;;;;6312840;22;20392;-88
2021/05/09 09:10:54;;;;;;;1.65;0.90;;;23.50;42.40;;;;;;6313669;22;20365;-90
2021/05/09 09:13:26;;;;;;;1.35;0.90;;;23.70;39.90;;;;;;6340884;22;20850;-90
2021/05/09 09:15:53;;;;;;;1.60;0.80;;;24.10;41.00;;;;;;6313219;22;20361;-92
2021/05/09 09:18:35;;;;;;;2.97;0.90;;;24.00;40.10;;;;;;6312251;22;20859;-94
2021/05/09 09:21:23;;;;;;;1.15;0.60;;;23.90;43.30;;;;;;6278749;22;20451;-94
2021/05/09 09:24:12;;;;;;;3.05;1.10;;;24.30;41.10;;;;;;6264151;22;20366;-95
2021/05/09 09:26:51;;;;;;;2.60;0.93;;;24.40;41.40;;;;;;6281929;22;20461;-84
2021/05/09 09:29:36;;;;;;;3.40;1.20;;;24.80;44.10;;;;;;6281786;22;20367;-87
2021/05/09 09:32:06;;;;;;;1.52;0.80;;;24.40;44.10;;;;;;6282935;22;20378;-86
2021/05/09 09:34:41;;;;;;;1.17;0.80;;;24.00;43.60;;;;;;6290224;22;20729;-84
2021/05/09 09:37:16;;;;;;;1.58;1.02;;;23.60;41.50;;;;;;6286109;22;20355;-93
2021/05/09 09:40:01;;;;;;;1.75;0.90;;;23.00;45.40;;;;;;6308998;22;20862;-90
2021/05/09 09:42:42;;;;;;;1.53;0.80;;;22.80;44.40;;;;;;6282181;22;20355;-95
2021/05/09 09:45:28;;;;;;;1.42;0.98;;;22.90;44.60;;;;;;6280881;22;20386;-94
2021/05/09 09:47:56;;;;;;;2.42;1.27;;;22.80;46.60;;;;;;6308252;22;20452;-93
2021/05/09 09:50:51;;;;;;;2.90;1.10;;;22.80;44.80;;;;;;6308949;22;20444;-82
2021/05/09 09:53:34;;;;;;;2.10;0.90;;;22.60;45.30;;;;;;6304787;22;20896;-81
2021/05/09 09:56:25;;;;;;;2.30;0.90;;;22.50;42.30;;;;;;6310687;22;20373;-89
2021/05/09 09:59:04;;;;;;;3.30;0.90;;;22.80;43.30;;;;;;6329048;22;20381;-87
2021/05/09 10:01:33;;;;;;;2.10;0.82;;;23.20;43.80;;;;;;6317876;22;20383;-80
2021/05/09 10:04:04;;;;;;;1.90;0.80;;;23.20;43.40;;;;;;6308251;22;20359;-81
2021/05/09 10:06:32;;;;;;;2.65;0.70;;;23.00;43.80;;;;;;6281256;22;20924;-81
2021/05/09 10:08:59;;;;;;;1.65;0.68;;;23.20;43.30;;;;;;6281440;22;20375;-81
2021/05/09 10:11:28;;;;;;;1.85;0.88;;;23.10;40.90;;;;;;6280617;22;20768;-80
2021/05/09 10:13:56;;;;;;;3.58;0.90;;;22.70;49.40;;;;;;6307928;22;20402;-80
2021/05/09 10:16:28;;;;;;;0.93;0.80;;;22.60;46.80;;;;;;6307289;22;20425;-82
2021/05/09 10:18:58;;;;;;;2.17;0.80;;;22.50;42.90;;;;;;6282484;22;20379;-79
2021/05/09 10:21:35;;;;;;;1.15;0.70;;;22.50;41.50;;;;;;6311880;22;20361;-80
2021/05/09 10:24:12;;;;;;;1.42;0.70;;;22.50;41.80;;;;;;6339125;22;20365;-79
2021/05/09 10:27:08;;;;;;;3.63;0.60;;;22.40;43.30;;;;;;6338945;22;20377;-80
2021/05/09 10:29:41;;;;;;;1.07;0.70;;;22.40;42.60;;;;;;6338739;22;20373;-79
2021/05/09 10:32:20;;;;;;;3.58;0.80;;;22.40;42.70;;;;;;6311752;22;20367;-79
2021/05/09 10:37:50;;;;;;;3.50;1.23;;;22.60;46.70;;;;;;6338616;22;20412;-79
2021/05/09 10:40:27;;;;;;;1.30;0.70;;;22.90;44.40;;;;;;6279525;22;20450;-80
2021/05/09 10:43:06;;;;;;;1.90;0.65;;;22.20;41.30;;;;;;6339300;22;20364;-79
2021/05/09 10:45:36;;;;;;;2.75;0.70;;;22.30;41.50;;;;;;6311554;22;20368;-80
2021/05/09 10:50:42;;;;;;;3.28;0.70;;;22.10;38.30;;;;;;6338908;22;20397;-80
2021/05/09 10:53:10;;;;;;;1.15;0.70;;;22.30;44.00;;;;;;6338514;22;20761;-80
2021/05/09 10:55:46;;;;;;;1.70;0.60;;;22.60;41.90;;;;;;6338526;22;20377;-80
2021/05/09 10:58:17;;;;;;;2.22;0.77;;;22.80;41.10;;;;;;6339179;22;20485;-82
2021/05/09 11:00:56;;;;;;;1.60;0.60;;;23.20;39.10;;;;;;6311360;22;20477;-80
2021/05/09 11:03:35;;;;;;;1.05;0.70;;;23.40;37.90;;;;;;6311225;22;20464;-84
2021/05/09 11:06:15;;;;;;;1.13;0.50;;;23.70;40.60;;;;;;6338976;22;20369;-80
2021/05/09 11:08:45;;;;;;;0.90;0.60;;;23.80;37.10;;;;;;6310940;22;20395;-81
2021/05/09 11:11:12;;;;;;;0.80;0.50;;;23.80;35.60;;;;;;6311103;22;20377;-82
2021/05/09 11:14:05;;;;;;;1.25;0.50;;;23.30;39.80;;;;;;6311493;22;20365;-91
2021/05/09 11:16:39;;;;;;;0.80;0.50;;;23.70;37.70;;;;;;6313387;22;20362;-87
2021/05/09 11:19:17;;;;;;;1.52;0.52;;;24.10;37.20;;;;;;6338119;22;20755;-84
2021/05/09 11:21:47;;;;;;;0.70;0.40;;;24.10;33.10;;;;;;6338453;22;20698;-80
2021/05/09 11:24:20;;;;;;;1.90;0.60;;;23.40;38.90;;;;;;6339074;22;20446;-80
2021/05/09 11:26:50;;;;;;;1.75;0.73;;;23.60;38.40;;;;;;6338640;22;20380;-83
2021/05/09 11:29:19;;;;;;;1.88;0.77;;;23.80;37.10;;;;;;6311109;22;20405;-81
2021/05/09 11:31:50;;;;;;;0.98;0.60;;;23.80;38.90;;;;;;6311517;22;20357;-85
2021/05/09 11:34:19;;;;;;;2.85;1.40;;;24.10;36.30;;;;;;6338435;22;20388;-87
2021/05/09 11:36:48;;;;;;;3.42;0.90;;;23.60;37.60;;;;;;6338862;22;20368;-82
2021/05/09 11:39:33;;;;;;;1.13;0.55;;;23.10;35.50;;;;;;6311830;22;20487;-83
2021/05/09 11:42:15;;;;;;;1.60;0.65;;;22.50;37.70;;;;;;6337914;22;20770;-82
2021/05/09 11:44:46;;;;;;;1.50;0.70;;;22.80;38.80;;;;;;6338654;22;20357;-80
2021/05/09 11:47:24;;;;;;;1.40;0.57;;;23.50;35.70;;;;;;6310929;22;20907;-84
2021/05/09 11:50:07;;;;;;;1.60;0.70;;;23.90;33.40;;;;;;6310723;22;20415;-85
2021/05/09 11:52:40;;;;;;;0.63;0.60;;;24.30;38.40;;;;;;6312724;22;20388;-88
2021/05/09 11:55:15;;;;;;;1.40;0.60;;;24.10;35.40;;;;;;6338957;22;20444;-87
2021/05/09 11:57:42;;;;;;;0.75;0.60;;;23.80;29.80;;;;;;6311404;22;20414;-85
2021/05/09 12:00:10;;;;;;;0.95;0.57;;;23.50;30.60;;;;;;6311335;22;20486;-82
2021/05/09 12:02:43;;;;;;;1.38;0.60;;;23.70;34.90;;;;;;6339153;22;20397;-84
2021/05/09 12:05:12;;;;;;;5.53;3.50;;;24.20;33.30;;;;;;6339922;22;20689;-83
2021/05/09 12:07:49;;;;;;;1.15;0.60;;;24.90;32.60;;;;;;6346035;22;20403;-85
2021/05/09 12:10:27;;;;;;;1.60;0.60;;;25.40;34.60;;;;;;6313437;22;20369;-85
2021/05/09 12:13:02;;;;;;;2.17;0.70;;;25.50;35.40;;;;;;6310841;22;20765;-84
2021/05/09 12:15:41;;;;;;;1.58;0.70;;;25.60;33.50;;;;;;6311246;22;20369;-85
2021/05/09 12:18:08;;;;;;;0.93;0.60;;;25.90;32.90;;;;;;6337875;22;20367;-83
2021/05/09 12:20:42;;;;;;;4.00;0.60;;;25.80;35.50;;;;;;6337722;22;20388;-82
2021/05/09 12:23:16;;;;;;;1.00;0.70;;;26.10;34.80;;;;;;6311137;22;20361;-82
2021/05/09 12:25:45;;;;;;;1.35;0.75;;;26.50;37.80;;;;;;6310702;22;20373;-84
2021/05/09 12:28:28;;;;;;;1.63;0.70;;;26.00;37.20;;;;;;6338103;22;20389;-85
2021/05/09 12:31:06;;;;;;;1.50;0.50;;;26.20;37.60;;;;;;6311012;22;20357;-85
2021/05/09 12:33:33;;;;;;;1.92;0.60;;;26.10;34.20;;;;;;6287470;22;20373;-85
2021/05/09 12:36:10;;;;;;;0.93;0.70;;;26.20;36.70;;;;;;6339096;22;20857;-85
2021/05/09 12:38:37;;;;;;;1.53;0.50;;;26.50;33.60;;;;;;6312749;22;20361;-84
2021/05/09 12:41:04;;;;;;;3.83;0.70;;;27.10;35.90;;;;;;6312586;22;20453;-83
2021/05/09 12:43:50;;;;;;;1.02;0.60;;;27.60;33.80;;;;;;6312333;22;20377;-84
2021/05/09 12:46:38;;;;;;;1.10;0.60;;;28.10;35.10;;;;;;6339969;22;20365;-83
2021/05/09 12:49:18;;;;;;;2.78;0.80;;;28.40;31.70;;;;;;6312050;22;20449;-83
2021/05/09 12:52:06;;;;;;;1.40;0.67;;;28.60;32.20;;;;;;6339371;22;20365;-82
2021/05/09 12:54:43;;;;;;;0.57;0.52;;;28.90;30.00;;;;;;6312337;22;20420;-83
2021/05/09 12:57:27;;;;;;;2.28;0.60;;;27.50;30.30;;;;;;6313102;22;20397;-80
2021/05/09 13:00:03;;;;;;;0.90;0.70;;;25.50;32.90;;;;;;6312991;22;20361;-83
2021/05/09 13:02:43;;;;;;;1.90;0.90;;;24.80;31.60;;;;;;6312743;22;20367;-85
2021/05/09 13:05:14;;;;;;;2.15;0.50;;;25.10;34.80;;;;;;6339769;22;20403;-89
2021/05/09 13:07:41;;;;;;;1.25;0.65;;;25.30;30.50;;;;;;6312557;22;20389;-81
2021/05/09 13:10:09;;;;;;;0.93;0.60;;;25.60;31.00;;;;;;6340001;22;20365;-86
2021/05/09 13:12:35;;;;;;;0.90;0.50;;;26.10;27.70;;;;;;6311789;22;20369;-89
2021/05/09 13:15:03;;;;;;;1.20;0.60;;;25.50;29.00;;;;;;6339930;22;20448;-80
2021/05/09 13:17:30;;;;;;;1.30;0.63;;;25.70;35.20;;;;;;6312414;22;20373;-83
2021/05/09 13:19:58;;;;;;;0.95;0.50;;;27.10;32.40;;;;;;6338662;22;20376;-86
2021/05/09 13:22:24;;;;;;;0.70;0.60;;;27.30;28.50;;;;;;6339719;22;20426;-82
2021/05/09 13:24:58;;;;;;;2.07;0.70;;;26.10;27.80;;;;;;6312977;22;20418;-82
2021/05/09 13:27:30;;;;;;;1.73;0.60;;;26.60;31.10;;;;;;6312631;22;20377;-85
2021/05/09 13:30:01;;;;;;;0.95;0.50;;;26.90;30.90;;;;;;6311996;22;20381;-83
2021/05/09 13:32:28;;;;;;;1.05;0.55;;;27.40;27.50;;;;;;6312208;22;20373;-83
2021/05/09 13:34:55;;;;;;;0.60;0.40;;;27.40;27.30;;;;;;6318398;22;20515;-83
2021/05/09 13:37:22;;;;;;;1.08;0.50;;;27.50;26.30;;;;;;6318406;22;20841;-82
2021/05/09 13:39:49;;;;;;;1.60;0.50;;;28.00;27.70;;;;;;6316422;22;20695;-81
2021/05/09 13:42:16;;;;;;;1.27;0.50;;;28.10;28.00;;;;;;6314362;22;20361;-95
2021/05/09 13:44:43;;;;;;;0.83;0.60;;;27.90;26.10;;;;;;6340084;22;20421;-89
2021/05/09 13:47:09;;;;;;;1.40;0.60;;;27.50;24.80;;;;;;6311709;22;20384;-87
2021/05/09 13:49:36;;;;;;;0.80;0.50;;;26.80;27.10;;;;;;6312060;22;20451;-83
2021/05/09 13:52:03;;;;;;;2.50;0.60;;;26.80;27.70;;;;;;6340715;22;20369;-85
2021/05/09 13:54:30;;;;;;;1.80;0.60;;;27.30;28.00;;;;;;6316837;22;20377;-86
2021/05/09 13:56:59;;;;;;;1.90;0.50;;;27.40;28.50;;;;;;6339887;22;20357;-87
2021/05/09 13:59:26;;;;;;;0.68;0.50;;;27.40;25.50;;;;;;6312580;22;20376;-87
2021/05/09 14:01:52;;;;;;;0.60;0.40;;;26.20;27.30;;;;;;6339516;22;20375;-88
2021/05/09 14:04:23;;;;;;;1.90;0.50;;;25.50;27.80;;;;;;6313056;22;20701;-84
2021/05/09 14:06:50;;;;;;;1.70;0.60;;;25.40;31.20;;;;;;6339623;22;20375;-85
2021/05/09 14:09:19;;;;;;;1.10;0.50;;;25.40;29.00;;;;;;6311812;22;20437;-86
2021/05/09 14:11:53;;;;;;;0.98;0.50;;;25.60;32.80;;;;;;6339597;22;20530;-86
2021/05/09 14:14:20;;;;;;;1.15;0.50;;;26.50;31.70;;;;;;6312560;22;20372;-87
2021/05/09 14:16:46;;;;;;;0.77;0.50;;;27.40;29.60;;;;;;6311958;22;20435;-89
2021/05/09 14:19:13;;;;;;;3.45;0.60;;;28.20;32.10;;;;;;6311747;22;20373;-86
2021/05/09 14:21:40;;;;;;;3.08;0.60;;;28.90;29.40;;;;;;6312129;22;20384;-86
2021/05/09 14:24:07;;;;;;;1.40;0.43;;;29.00;30.90;;;;;;6312417;22;20357;-85
2021/05/09 14:26:34;;;;;;;2.47;0.50;;;27.40;28.10;;;;;;6339666;22;20374;-83
2021/05/09 14:29:01;;;;;;;1.23;0.50;;;27.20;31.10;;;;;;6311833;22;20389;-84
2021/05/09 14:31:28;;;;;;;0.93;0.50;;;27.10;31.90;;;;;;6311755;22;20845;-92
2021/05/09 14:33:54;;;;;;;0.90;0.50;;;26.60;29.90;;;;;;6338553;22;20451;-84
2021/05/09 14:36:21;;;;;;;0.80;0.50;;;26.30;31.70;;;;;;6339393;22;20372;-84
2021/05/09 14:38:48;;;;;;;0.90;0.60;;;26.20;31.70;;;;;;6311197;22;20377;-83
2021/05/09 14:41:14;;;;;;;1.08;0.60;;;25.80;32.60;;;;;;6311802;22;20369;-86
2021/05/09 14:43:41;;;;;;;0.88;0.65;;;25.70;32.50;;;;;;6312073;22;20376;-88
2021/05/09 14:46:08;;;;;;;0.70;0.50;;;26.40;35.90;;;;;;6311272;22;20365;-81
2021/05/09 14:48:35;;;;;;;0.63;0.50;;;26.30;32.70;;;;;;6311142;22;20756;-84
2021/05/09 14:51:02;;;;;;;1.13;0.60;;;26.60;34.90;;;;;;6311667;22;20389;-86
2021/05/09 14:53:33;;;;;;;1.27;0.68;;;26.80;34.00;;;;;;6339172;22;20376;-86
2021/05/09 14:55:59;;;;;;;0.95;0.70;;;27.20;34.80;;;;;;6311577;22;20373;-85
2021/05/09 14:58:26;;;;;;;2.10;0.70;;;26.80;34.40;;;;;;6338580;22;20422;-82
2021/05/09 15:00:53;;;;;;;1.13;0.70;;;26.60;37.40;;;;;;6311615;22;20414;-82
2021/05/09 15:03:19;;;;;;;1.27;0.70;;;26.60;37.10;;;;;;6338333;22;20376;-86
2021/05/09 15:05:46;;;;;;;1.65;0.70;;;27.20;36.30;;;;;;6311447;22;20365;-85
2021/05/09 15:08:13;;;;;;;0.80;0.60;;;27.20;38.20;;;;;;6311456;22;20384;-82
2021/05/09 15:10:43;;;;;;;1.13;0.80;;;26.90;36.20;;;;;;6311876;22;20429;-82
2021/05/09 15:13:10;;;;;;;0.82;0.60;;;26.40;37.00;;;;;;6310497;22;20853;-81
2021/05/09 15:15:36;;;;;;;1.17;0.73;;;25.90;39.70;;;;;;6310826;22;20384;-82
2021/05/09 15:18:03;;;;;;;2.10;0.80;;;25.50;40.20;;;;;;6338551;22;20452;-82
2021/05/09 15:20:30;;;;;;;2.10;0.90;;;25.30;42.80;;;;;;6310972;22;20424;-83
2021/05/09 15:22:59;;;;;;;0.80;0.65;;;26.10;40.20;;;;;;6337993;22;20373;-82
2021/05/09 15:25:26;;;;;;;1.40;0.60;;;25.80;37.70;;;;;;6311531;22;20365;-83
2021/05/09 15:27:53;;;;;;;2.47;0.70;;;25.70;38.00;;;;;;6338735;22;20392;-83
2021/05/09 15:30:20;;;;;;;1.05;0.70;;;25.70;37.40;;;;;;6338828;22;20378;-89
2021/05/09 15:32:50;;;;;;;2.53;0.70;;;25.00;36.80;;;;;;6317386;22;20361;-94
2021/05/09 15:35:31;;;;;;;2.10;0.70;;;24.50;38.40;;;;;;6327751;22;20399;-95
2021/05/09 16:16:59;;;;;;;1.35;0.80;;;24.30;43.40;;;;;;6270673;22;20391;-96
2021/05/09 16:22:22;;;;;;;1.58;0.88;;;24.30;44.10;;;;;;6326062;22;20447;-96
2021/05/09 16:38:00;;;;;;;1.35;0.80;;;23.80;45.40;;;;;;6336159;22;20461;-95
2021/05/09 16:46:52;;;;;;;1.83;0.93;;;23.30;48.60;;;;;;6267685;22;20401;-95
2021/05/09 16:49:59;;;;;;;3.50;1.10;;;23.80;46.80;;;;;;6281908;22;20430;-94
2021/05/09 16:52:27;;;;;;;2.60;0.80;;;23.70;45.60;;;;;;6293629;22;20391;-94
2021/05/09 16:55:04;;;;;;;1.08;0.80;;;23.50;46.80;;;;;;6298365;22;20383;-96
2021/05/09 16:57:56;;;;;;;1.95;1.00;;;23.30;47.60;;;;;;6288471;22;20422;-95
2021/05/09 17:01:08;;;;;;;2.35;0.98;;;23.50;48.50;;;;;;6260223;22;20614;-95
2021/05/09 17:06:29;;;;;;;1.75;1.00;;;23.00;46.70;;;;;;6342214;22;20474;-93
2021/05/09 17:08:59;;;;;;;2.75;0.80;;;22.70;48.20;;;;;;6319060;22;20475;-94
2021/05/09 17:11:27;;;;;;;1.65;1.00;;;22.50;48.30;;;;;;6356197;22;20476;-94
2021/05/09 17:13:54;;;;;;;2.78;1.00;;;22.50;49.40;;;;;;6339319;22;20368;-93
2021/05/09 17:16:21;;;;;;;1.38;1.00;;;22.40;49.60;;;;;;6336906;22;20401;-95
2021/05/09 17:18:52;;;;;;;2.60;1.00;;;22.50;49.70;;;;;;6329181;22;20460;-95
2021/05/09 17:21:22;;;;;;;2.17;1.00;;;22.30;49.00;;;;;;6321170;22;20438;-95
2021/05/09 17:23:56;;;;;;;2.60;1.08;;;22.20;49.30;;;;;;6324226;22;20415;-95
2021/05/09 17:26:29;;;;;;;2.20;1.05;;;22.10;50.30;;;;;;6345689;22;20384;-91
2021/05/09 17:29:01;;;;;;;1.80;1.20;;;22.10;50.70;;;;;;6327712;22;20393;-94
2021/05/09 17:31:30;;;;;;;3.30;1.05;;;21.90;50.30;;;;;;6298054;22;20387;-95
2021/05/09 17:33:57;;;;;;;4.32;1.10;;;21.80;50.20;;;;;;6355114;22;20389;-94
2021/05/09 17:36:25;;;;;;;1.80;0.87;;;21.60;51.10;;;;;;6316636;22;20445;-92
2021/05/09 17:38:54;;;;;;;3.60;1.00;;;21.60;51.60;;;;;;6293710;22;20407;-92
2021/05/09 17:41:49;;;;;;;1.88;1.05;;;21.50;50.70;;;;;;6311948;22;20423;-95
2021/05/09 17:47:00;;;;;;;4.32;1.13;;;21.40;51.50;;;;;;6364067;22;20677;-93
2021/05/09 17:49:27;;;;;;;1.98;1.00;;;21.30;52.90;;;;;;6344387;22;20878;-95
2021/05/09 17:52:23;;;;;;;2.17;1.00;;;21.10;53.40;;;;;;6351276;22;20446;-95
2021/05/09 17:55:06;;;;;;;5.37;1.10;;;20.80;54.60;;;;;;6348327;22;20359;-94
2021/05/09 17:57:33;;;;;;;1.67;1.13;;;20.40;55.20;;;;;;6296104;22;20450;-93
2021/05/09 18:00:11;;;;;;;2.38;1.27;;;20.20;56.20;;;;;;6347455;22;20666;-90
2021/05/09 18:02:37;;;;;;;2.88;1.13;;;20.00;57.40;;;;;;6344332;22;20383;-93
2021/05/09 18:05:05;;;;;;;2.17;1.10;;;19.60;59.70;;;;;;6345485;22;20383;-94
2021/05/09 18:07:35;;;;;;;1.58;1.00;;;19.40;60.00;;;;;;6348107;22;20898;-95
2021/05/09 18:10:07;;;;;;;3.90;1.40;;;19.10;60.80;;;;;;6345033;22;20466;-95
2021/05/09 18:12:36;;;;;;;3.40;1.20;;;18.90;62.00;;;;;;6347893;22;20385;-93
2021/05/09 18:18:55;;;;;;;2.00;1.00;;;18.50;63.00;;;;;;6375216;22;20395;-95
2021/05/09 18:23:56;;;;;;;3.10;1.10;;;18.50;63.50;;;;;;6355957;22;20702;-96
2021/05/09 18:26:58;;;;;;;2.67;1.20;;;18.40;63.70;;;;;;6317619;22;20381;-96
2021/05/09 18:29:54;;;;;;;3.25;1.30;;;18.30;63.40;;;;;;6338426;22;20409;-96
2021/05/09 18:32:40;;;;;;;3.53;1.10;;;18.30;64.10;;;;;;6306254;22;20413;-96
2021/05/09 18:35:33;;;;;;;2.42;1.13;;;18.10;65.00;;;;;;6274363;22;20444;-95
2021/05/09 18:38:14;;;;;;;3.10;1.10;;;18.10;64.30;;;;;;6269856;22;20372;-96
2021/05/09 18:41:16;;;;;;;1.75;0.95;;;18.00;66.30;;;;;;6268768;22;20380;-95